sensor_id;sensor_type;location;lat;lon;timestamp;P1;durP1;ratioP1;P2;durP2;ratioP2
38603;SDS011;24924;50.054;8.790;2024-02-21T00:02:10;14.75;;;5.70;;
38603;SDS011;24924;50.054;8.790;2024-02-21T00:04:56;16.67;;;5.97;;
38603;SDS011;24924;50.054;8.790;2024-02-21T00:07:43;17.47;;;5.97;;
38603;SDS011;24924;50.054;8.790;2024-02-21T00:10:29;15.07;;;5.45;;
38603;SDS011;24924;50.054;8.790;2024-02-21T00:13:17;15.77;;;6.07;;
38603;SDS011;24924;50.054;8.790;2024-02-21T00:16:03;15.88;;;6.65;;
38603;SDS011;24924;50.054;8.790;2024-02-21T00:18:50;19.90;;;6.45;;
38603;SDS011;24924;50.054;8.790;2024-02-21T00:21:36;17.70;;;6.73;;
38603;SDS011;24924;50.054;8.790;2024-02-21T00:24:22;14.65;;;6.30;;
38603;SDS011;24924;50.054;8.790;2024-02-21T00:27:09;21.40;;;6.90;;
38603;SDS011;24924;50.054;8.790;2024-02-21T00:29:55;13.80;;;6.93;;
38603;SDS011;24924;50.054;8.790;2024-02-21T00:32:41;18.98;;;7.03;;
38603;SDS011;24924;50.054;8.790;2024-02-21T00:35:27;17.60;;;6.70;;
38603;SDS011;24924;50.054;8.790;2024-02-21T00:38:13;20.33;;;6.60;;
38603;SDS011;24924;50.054;8.790;2024-02-21T00:40:59;22.02;;;8.27;;
38603;SDS011;24924;50.054;8.790;2024-02-21T00:43:46;15.15;;;6.85;;
38603;SDS011;24924;50.054;8.790;2024-02-21T00:46:34;18.45;;;7.53;;
38603;SDS011;24924;50.054;8.790;2024-02-21T00:49:20;17.03;;;7.57;;
38603;SDS011;24924;50.054;8.790;2024-02-21T00:52:06;18.55;;;7.20;;
38603;SDS011;24924;50.054;8.790;2024-02-21T00:54:52;18.55;;;7.72;;
38603;SDS011;24924;50.054;8.790;2024-02-21T00:57:39;17.75;;;8.07;;
38603;SDS011;24924;50.054;8.790;2024-02-21T01:00:25;18.65;;;7.72;;
38603;SDS011;24924;50.054;8.790;2024-02-21T01:03:11;22.67;;;9.70;;
38603;SDS011;24924;50.054;8.790;2024-02-21T01:05:57;16.23;;;7.25;;
38603;SDS011;24924;50.054;8.790;2024-02-21T01:08:43;17.42;;;7.68;;
38603;SDS011;24924;50.054;8.790;2024-02-21T01:11:29;17.25;;;8.63;;
38603;SDS011;24924;50.054;8.790;2024-02-21T01:14:15;18.52;;;7.53;;
38603;SDS011;24924;50.054;8.790;2024-02-21T01:17:02;18.53;;;7.43;;
38603;SDS011;24924;50.054;8.790;2024-02-21T01:19:48;18.42;;;7.82;;
38603;SDS011;24924;50.054;8.790;2024-02-21T01:22:34;18.92;;;7.65;;
38603;SDS011;24924;50.054;8.790;2024-02-21T01:25:20;20.02;;;8.85;;
38603;SDS011;24924;50.054;8.790;2024-02-21T01:28:06;16.95;;;7.80;;
38603;SDS011;24924;50.054;8.790;2024-02-21T01:30:53;13.87;;;6.57;;
38603;SDS011;24924;50.054;8.790;2024-02-21T01:33:39;24.58;;;9.32;;
38603;SDS011;24924;50.054;8.790;2024-02-21T01:36:25;17.00;;;8.05;;
38603;SDS011;24924;50.054;8.790;2024-02-21T01:39:11;14.98;;;7.55;;
38603;SDS011;24924;50.054;8.790;2024-02-21T01:41:57;16.15;;;7.28;;
38603;SDS011;24924;50.054;8.790;2024-02-21T01:44:44;14.27;;;7.63;;
38603;SDS011;24924;50.054;8.790;2024-02-21T01:47:30;18.38;;;8.77;;
38603;SDS011;24924;50.054;8.790;2024-02-21T01:50:16;20.17;;;8.43;;
38603;SDS011;24924;50.054;8.790;2024-02-21T01:53:03;20.73;;;8.63;;
38603;SDS011;24924;50.054;8.790;2024-02-21T01:55:49;18.23;;;7.95;;
38603;SDS011;24924;50.054;8.790;2024-02-21T01:58:36;18.53;;;7.67;;
38603;SDS011;24924;50.054;8.790;2024-02-21T02:01:24;16.27;;;7.47;;
38603;SDS011;24924;50.054;8.790;2024-02-21T02:04:10;18.55;;;8.23;;
38603;SDS011;24924;50.054;8.790;2024-02-21T02:06:59;20.17;;;8.32;;
38603;SDS011;24924;50.054;8.790;2024-02-21T02:09:48;19.60;;;7.95;;
38603;SDS011;24924;50.054;8.790;2024-02-21T02:12:35;19.23;;;7.23;;
38603;SDS011;24924;50.054;8.790;2024-02-21T02:15:21;18.75;;;7.85;;
38603;SDS011;24924;50.054;8.790;2024-02-21T02:18:07;19.05;;;7.47;;
38603;SDS011;24924;50.054;8.790;2024-02-21T02:20:54;16.70;;;7.18;;
38603;SDS011;24924;50.054;8.790;2024-02-21T02:23:40;17.02;;;7.78;;
38603;SDS011;24924;50.054;8.790;2024-02-21T02:26:28;20.77;;;8.97;;
38603;SDS011;24924;50.054;8.790;2024-02-21T02:29:14;18.75;;;8.23;;
38603;SDS011;24924;50.054;8.790;2024-02-21T02:32:02;18.25;;;7.90;;
38603;SDS011;24924;50.054;8.790;2024-02-21T02:34:48;21.90;;;9.32;;
38603;SDS011;24924;50.054;8.790;2024-02-21T02:37:35;16.40;;;7.03;;
38603;SDS011;24924;50.054;8.790;2024-02-21T02:40:21;17.17;;;7.70;;
38603;SDS011;24924;50.054;8.790;2024-02-21T02:43:07;18.50;;;7.50;;
38603;SDS011;24924;50.054;8.790;2024-02-21T02:45:53;16.90;;;7.47;;
38603;SDS011;24924;50.054;8.790;2024-02-21T02:48:39;20.38;;;7.90;;
38603;SDS011;24924;50.054;8.790;2024-02-21T02:51:26;18.02;;;8.85;;
38603;SDS011;24924;50.054;8.790;2024-02-21T02:54:12;17.07;;;7.83;;
38603;SDS011;24924;50.054;8.790;2024-02-21T02:56:58;20.38;;;7.93;;
38603;SDS011;24924;50.054;8.790;2024-02-21T02:59:48;17.50;;;8.15;;
38603;SDS011;24924;50.054;8.790;2024-02-21T03:02:34;18.88;;;8.50;;
38603;SDS011;24924;50.054;8.790;2024-02-21T03:05:21;17.73;;;7.90;;
38603;SDS011;24924;50.054;8.790;2024-02-21T03:08:07;18.90;;;8.47;;
38603;SDS011;24924;50.054;8.790;2024-02-21T03:10:53;18.15;;;8.13;;
38603;SDS011;24924;50.054;8.790;2024-02-21T03:13:40;20.20;;;8.25;;
38603;SDS011;24924;50.054;8.790;2024-02-21T03:16:26;19.00;;;8.48;;
38603;SDS011;24924;50.054;8.790;2024-02-21T03:19:12;19.17;;;7.72;;
38603;SDS011;24924;50.054;8.790;2024-02-21T03:21:58;20.23;;;8.77;;
38603;SDS011;24924;50.054;8.790;2024-02-21T03:24:44;23.77;;;9.23;;
38603;SDS011;24924;50.054;8.790;2024-02-21T03:27:31;26.42;;;9.40;;
38603;SDS011;24924;50.054;8.790;2024-02-21T03:30:17;18.33;;;9.30;;
38603;SDS011;24924;50.054;8.790;2024-02-21T03:33:03;20.80;;;7.80;;
38603;SDS011;24924;50.054;8.790;2024-02-21T03:35:50;22.23;;;8.00;;
38603;SDS011;24924;50.054;8.790;2024-02-21T03:38:36;20.40;;;8.93;;
38603;SDS011;24924;50.054;8.790;2024-02-21T03:41:22;16.65;;;7.97;;
38603;SDS011;24924;50.054;8.790;2024-02-21T03:44:08;20.80;;;8.65;;
38603;SDS011;24924;50.054;8.790;2024-02-21T03:46:54;16.88;;;8.40;;
38603;SDS011;24924;50.054;8.790;2024-02-21T03:49:40;20.00;;;8.83;;
38603;SDS011;24924;50.054;8.790;2024-02-21T03:52:27;22.13;;;8.70;;
38603;SDS011;24924;50.054;8.790;2024-02-21T03:55:13;22.27;;;8.25;;
38603;SDS011;24924;50.054;8.790;2024-02-21T03:57:59;17.48;;;8.13;;
38603;SDS011;24924;50.054;8.790;2024-02-21T04:00:45;18.67;;;8.40;;
38603;SDS011;24924;50.054;8.790;2024-02-21T04:03:31;21.17;;;8.27;;
38603;SDS011;24924;50.054;8.790;2024-02-21T04:06:18;19.42;;;7.53;;
38603;SDS011;24924;50.054;8.790;2024-02-21T04:09:04;17.08;;;7.32;;
38603;SDS011;24924;50.054;8.790;2024-02-21T04:11:50;18.73;;;7.80;;
38603;SDS011;24924;50.054;8.790;2024-02-21T04:14:37;16.50;;;7.82;;
38603;SDS011;24924;50.054;8.790;2024-02-21T04:17:25;21.83;;;7.80;;
38603;SDS011;24924;50.054;8.790;2024-02-21T04:20:17;17.15;;;6.68;;
38603;SDS011;24924;50.054;8.790;2024-02-21T04:23:03;19.17;;;8.60;;
38603;SDS011;24924;50.054;8.790;2024-02-21T04:25:49;18.58;;;8.05;;
38603;SDS011;24924;50.054;8.790;2024-02-21T04:28:36;22.70;;;7.97;;
38603;SDS011;24924;50.054;8.790;2024-02-21T04:31:22;15.93;;;7.30;;
38603;SDS011;24924;50.054;8.790;2024-02-21T04:34:08;17.52;;;7.65;;
38603;SDS011;24924;50.054;8.790;2024-02-21T04:36:54;15.88;;;6.90;;
38603;SDS011;24924;50.054;8.790;2024-02-21T04:39:40;17.10;;;7.80;;
38603;SDS011;24924;50.054;8.790;2024-02-21T04:42:27;17.73;;;8.25;;
38603;SDS011;24924;50.054;8.790;2024-02-21T04:45:13;17.73;;;7.77;;
38603;SDS011;24924;50.054;8.790;2024-02-21T04:47:59;18.77;;;7.75;;
38603;SDS011;24924;50.054;8.790;2024-02-21T04:50:45;17.77;;;6.95;;
38603;SDS011;24924;50.054;8.790;2024-02-21T04:53:31;19.23;;;7.45;;
38603;SDS011;24924;50.054;8.790;2024-02-21T04:56:17;15.05;;;7.57;;
38603;SDS011;24924;50.054;8.790;2024-02-21T04:59:04;12.97;;;7.13;;
38603;SDS011;24924;50.054;8.790;2024-02-21T05:01:50;19.00;;;7.35;;
38603;SDS011;24924;50.054;8.790;2024-02-21T05:04:36;16.23;;;7.32;;
38603;SDS011;24924;50.054;8.790;2024-02-21T05:07:23;16.98;;;7.03;;
38603;SDS011;24924;50.054;8.790;2024-02-21T05:10:10;19.90;;;7.35;;
38603;SDS011;24924;50.054;8.790;2024-02-21T05:12:57;15.90;;;7.73;;
38603;SDS011;24924;50.054;8.790;2024-02-21T05:15:44;23.40;;;8.15;;
38603;SDS011;24924;50.054;8.790;2024-02-21T05:18:30;15.88;;;7.63;;
38603;SDS011;24924;50.054;8.790;2024-02-21T05:21:16;19.55;;;7.85;;
38603;SDS011;24924;50.054;8.790;2024-02-21T05:24:03;18.70;;;7.53;;
38603;SDS011;24924;50.054;8.790;2024-02-21T05:26:49;15.90;;;7.70;;
38603;SDS011;24924;50.054;8.790;2024-02-21T05:29:35;16.80;;;8.27;;
38603;SDS011;24924;50.054;8.790;2024-02-21T05:32:21;17.02;;;7.93;;
38603;SDS011;24924;50.054;8.790;2024-02-21T05:35:07;12.70;;;6.88;;
38603;SDS011;24924;50.054;8.790;2024-02-21T05:37:54;20.45;;;7.53;;
38603;SDS011;24924;50.054;8.790;2024-02-21T05:40:40;18.40;;;7.87;;
38603;SDS011;24924;50.054;8.790;2024-02-21T05:43:26;17.75;;;7.53;;
38603;SDS011;24924;50.054;8.790;2024-02-21T05:46:12;16.65;;;7.85;;
38603;SDS011;24924;50.054;8.790;2024-02-21T05:48:59;18.30;;;7.88;;
38603;SDS011;24924;50.054;8.790;2024-02-21T05:51:45;15.90;;;7.28;;
38603;SDS011;24924;50.054;8.790;2024-02-21T05:54:31;16.00;;;7.10;;
38603;SDS011;24924;50.054;8.790;2024-02-21T05:57:18;19.95;;;8.50;;
38603;SDS011;24924;50.054;8.790;2024-02-21T06:00:05;16.80;;;7.97;;
38603;SDS011;24924;50.054;8.790;2024-02-21T06:02:58;17.20;;;7.85;;
38603;SDS011;24924;50.054;8.790;2024-02-21T06:05:44;16.92;;;8.32;;
38603;SDS011;24924;50.054;8.790;2024-02-21T06:08:31;19.60;;;9.00;;
38603;SDS011;24924;50.054;8.790;2024-02-21T06:11:17;19.30;;;7.63;;
38603;SDS011;24924;50.054;8.790;2024-02-21T06:14:03;17.63;;;7.55;;
38603;SDS011;24924;50.054;8.790;2024-02-21T06:16:49;17.65;;;7.25;;
38603;SDS011;24924;50.054;8.790;2024-02-21T06:19:35;14.48;;;7.60;;
38603;SDS011;24924;50.054;8.790;2024-02-21T06:22:21;16.87;;;7.53;;
38603;SDS011;24924;50.054;8.790;2024-02-21T06:25:07;13.98;;;7.38;;
38603;SDS011;24924;50.054;8.790;2024-02-21T06:27:54;19.40;;;7.55;;
38603;SDS011;24924;50.054;8.790;2024-02-21T06:30:40;17.60;;;7.78;;
38603;SDS011;24924;50.054;8.790;2024-02-21T06:33:26;18.08;;;7.32;;
38603;SDS011;24924;50.054;8.790;2024-02-21T06:36:12;18.13;;;7.43;;
38603;SDS011;24924;50.054;8.790;2024-02-21T06:38:58;15.25;;;7.57;;
38603;SDS011;24924;50.054;8.790;2024-02-21T06:41:44;16.52;;;7.10;;
38603;SDS011;24924;50.054;8.790;2024-02-21T06:44:30;14.93;;;7.28;;
38603;SDS011;24924;50.054;8.790;2024-02-21T06:47:17;14.95;;;6.47;;
38603;SDS011;24924;50.054;8.790;2024-02-21T06:50:03;17.33;;;7.80;;
38603;SDS011;24924;50.054;8.790;2024-02-21T06:52:50;17.45;;;7.18;;
38603;SDS011;24924;50.054;8.790;2024-02-21T06:55:36;16.90;;;7.25;;
38603;SDS011;24924;50.054;8.790;2024-02-21T06:58:22;15.20;;;7.75;;
38603;SDS011;24924;50.054;8.790;2024-02-21T07:01:08;19.10;;;7.10;;
38603;SDS011;24924;50.054;8.790;2024-02-21T07:03:56;14.63;;;6.70;;
38603;SDS011;24924;50.054;8.790;2024-02-21T07:06:42;14.93;;;6.53;;
38603;SDS011;24924;50.054;8.790;2024-02-21T07:09:28;16.20;;;6.30;;
38603;SDS011;24924;50.054;8.790;2024-02-21T07:12:17;16.73;;;6.00;;
38603;SDS011;24924;50.054;8.790;2024-02-21T07:15:03;14.25;;;6.13;;
38603;SDS011;24924;50.054;8.790;2024-02-21T07:17:50;12.07;;;5.80;;
38603;SDS011;24924;50.054;8.790;2024-02-21T07:20:36;16.30;;;6.72;;
38603;SDS011;24924;50.054;8.790;2024-02-21T07:23:22;15.88;;;7.22;;
38603;SDS011;24924;50.054;8.790;2024-02-21T07:26:08;12.55;;;6.20;;
38603;SDS011;24924;50.054;8.790;2024-02-21T07:28:55;15.85;;;5.75;;
38603;SDS011;24924;50.054;8.790;2024-02-21T07:31:41;12.30;;;5.67;;
38603;SDS011;24924;50.054;8.790;2024-02-21T07:34:28;11.43;;;5.88;;
38603;SDS011;24924;50.054;8.790;2024-02-21T07:37:14;15.80;;;6.10;;
38603;SDS011;24924;50.054;8.790;2024-02-21T07:40:00;15.60;;;6.47;;
38603;SDS011;24924;50.054;8.790;2024-02-21T07:42:46;13.30;;;6.20;;
38603;SDS011;24924;50.054;8.790;2024-02-21T07:45:32;13.47;;;5.60;;
38603;SDS011;24924;50.054;8.790;2024-02-21T07:48:18;17.58;;;6.05;;
38603;SDS011;24924;50.054;8.790;2024-02-21T07:51:04;16.67;;;6.18;;
38603;SDS011;24924;50.054;8.790;2024-02-21T07:53:50;16.98;;;5.82;;
38603;SDS011;24924;50.054;8.790;2024-02-21T07:56:37;13.57;;;6.03;;
38603;SDS011;24924;50.054;8.790;2024-02-21T07:59:23;12.27;;;5.93;;
38603;SDS011;24924;50.054;8.790;2024-02-21T08:02:09;10.63;;;5.00;;
38603;SDS011;24924;50.054;8.790;2024-02-21T08:04:55;12.95;;;6.38;;
38603;SDS011;24924;50.054;8.790;2024-02-21T08:07:42;9.75;;;5.13;;
38603;SDS011;24924;50.054;8.790;2024-02-21T08:10:28;19.08;;;5.88;;
38603;SDS011;24924;50.054;8.790;2024-02-21T08:13:14;10.70;;;5.67;;
38603;SDS011;24924;50.054;8.790;2024-02-21T08:16:00;18.42;;;6.22;;
38603;SDS011;24924;50.054;8.790;2024-02-21T08:18:46;14.40;;;5.68;;
38603;SDS011;24924;50.054;8.790;2024-02-21T08:21:33;14.48;;;6.32;;
38603;SDS011;24924;50.054;8.790;2024-02-21T08:24:19;13.30;;;6.03;;
38603;SDS011;24924;50.054;8.790;2024-02-21T08:27:05;12.67;;;6.30;;
38603;SDS011;24924;50.054;8.790;2024-02-21T08:29:51;12.35;;;5.68;;
38603;SDS011;24924;50.054;8.790;2024-02-21T08:32:37;16.13;;;5.70;;
38603;SDS011;24924;50.054;8.790;2024-02-21T08:35:23;14.20;;;5.68;;
38603;SDS011;24924;50.054;8.790;2024-02-21T08:38:10;11.43;;;6.00;;
38603;SDS011;24924;50.054;8.790;2024-02-21T08:40:56;13.80;;;6.03;;
38603;SDS011;24924;50.054;8.790;2024-02-21T08:43:42;11.00;;;5.80;;
38603;SDS011;24924;50.054;8.790;2024-02-21T08:46:28;16.25;;;6.80;;
38603;SDS011;24924;50.054;8.790;2024-02-21T08:49:14;15.25;;;7.00;;
38603;SDS011;24924;50.054;8.790;2024-02-21T08:52:00;10.13;;;5.35;;
38603;SDS011;24924;50.054;8.790;2024-02-21T08:54:48;12.93;;;5.97;;
38603;SDS011;24924;50.054;8.790;2024-02-21T08:57:33;11.35;;;5.28;;
38603;SDS011;24924;50.054;8.790;2024-02-21T09:00:22;12.05;;;5.38;;
38603;SDS011;24924;50.054;8.790;2024-02-21T09:03:12;12.40;;;5.40;;
38603;SDS011;24924;50.054;8.790;2024-02-21T09:05:58;11.75;;;4.97;;
38603;SDS011;24924;50.054;8.790;2024-02-21T09:08:45;18.30;;;5.97;;
38603;SDS011;24924;50.054;8.790;2024-02-21T09:11:32;13.02;;;5.38;;
38603;SDS011;24924;50.054;8.790;2024-02-21T09:14:18;14.48;;;5.57;;
38603;SDS011;24924;50.054;8.790;2024-02-21T09:17:04;11.98;;;5.70;;
38603;SDS011;24924;50.054;8.790;2024-02-21T09:19:50;14.60;;;5.20;;
38603;SDS011;24924;50.054;8.790;2024-02-21T09:22:36;12.33;;;5.70;;
38603;SDS011;24924;50.054;8.790;2024-02-21T09:25:23;13.90;;;5.38;;
38603;SDS011;24924;50.054;8.790;2024-02-21T09:28:09;16.42;;;6.10;;
38603;SDS011;24924;50.054;8.790;2024-02-21T09:30:55;14.20;;;5.95;;
38603;SDS011;24924;50.054;8.790;2024-02-21T09:33:42;14.43;;;5.88;;
38603;SDS011;24924;50.054;8.790;2024-02-21T09:36:28;13.87;;;6.07;;
38603;SDS011;24924;50.054;8.790;2024-02-21T09:39:13;15.10;;;5.80;;
38603;SDS011;24924;50.054;8.790;2024-02-21T09:42:05;13.10;;;5.53;;
38603;SDS011;24924;50.054;8.790;2024-02-21T09:44:55;11.73;;;5.38;;
38603;SDS011;24924;50.054;8.790;2024-02-21T09:47:43;12.48;;;5.63;;
38603;SDS011;24924;50.054;8.790;2024-02-21T09:50:50;13.47;;;5.30;;
38603;SDS011;24924;50.054;8.790;2024-02-21T09:53:38;15.23;;;5.80;;
38603;SDS011;24924;50.054;8.790;2024-02-21T09:56:27;9.77;;;5.05;;
38603;SDS011;24924;50.054;8.790;2024-02-21T09:59:14;17.95;;;5.25;;
38603;SDS011;24924;50.054;8.790;2024-02-21T10:02:01;12.45;;;5.15;;
38603;SDS011;24924;50.054;8.790;2024-02-21T10:04:48;11.00;;;5.07;;
38603;SDS011;24924;50.054;8.790;2024-02-21T10:07:34;10.80;;;4.97;;
38603;SDS011;24924;50.054;8.790;2024-02-21T10:10:20;11.95;;;5.20;;
38603;SDS011;24924;50.054;8.790;2024-02-21T10:13:07;13.50;;;5.43;;
38603;SDS011;24924;50.054;8.790;2024-02-21T10:16:06;11.05;;;5.40;;
38603;SDS011;24924;50.054;8.790;2024-02-21T10:18:54;12.30;;;5.43;;
38603;SDS011;24924;50.054;8.790;2024-02-21T10:21:39;11.20;;;5.00;;
38603;SDS011;24924;50.054;8.790;2024-02-21T10:24:26;13.60;;;5.22;;
38603;SDS011;24924;50.054;8.790;2024-02-21T10:27:13;15.05;;;5.22;;
38603;SDS011;24924;50.054;8.790;2024-02-21T10:30:00;13.73;;;5.20;;
38603;SDS011;24924;50.054;8.790;2024-02-21T10:32:49;11.20;;;5.37;;
38603;SDS011;24924;50.054;8.790;2024-02-21T10:35:37;12.30;;;5.15;;
38603;SDS011;24924;50.054;8.790;2024-02-21T10:38:23;11.10;;;5.45;;
38603;SDS011;24924;50.054;8.790;2024-02-21T10:41:10;11.98;;;5.78;;
38603;SDS011;24924;50.054;8.790;2024-02-21T10:44:01;12.45;;;5.70;;
38603;SDS011;24924;50.054;8.790;2024-02-21T10:46:52;13.13;;;5.50;;
38603;SDS011;24924;50.054;8.790;2024-02-21T10:49:41;10.32;;;5.25;;
38603;SDS011;24924;50.054;8.790;2024-02-21T10:52:55;11.52;;;5.60;;
38603;SDS011;24924;50.054;8.790;2024-02-21T10:55:41;12.25;;;5.43;;
38603;SDS011;24924;50.054;8.790;2024-02-21T10:58:36;12.98;;;5.47;;
38603;SDS011;24924;50.054;8.790;2024-02-21T11:01:23;14.27;;;4.80;;
38603;SDS011;24924;50.054;8.790;2024-02-21T11:04:12;10.13;;;4.80;;
38603;SDS011;24924;50.054;8.790;2024-02-21T11:06:59;12.90;;;4.50;;
38603;SDS011;24924;50.054;8.790;2024-02-21T11:09:52;10.30;;;4.47;;
38603;SDS011;24924;50.054;8.790;2024-02-21T11:12:40;15.20;;;4.90;;
38603;SDS011;24924;50.054;8.790;2024-02-21T11:15:26;9.07;;;4.77;;
38603;SDS011;24924;50.054;8.790;2024-02-21T11:18:22;11.45;;;4.70;;
38603;SDS011;24924;50.054;8.790;2024-02-21T11:21:09;11.80;;;5.53;;
38603;SDS011;24924;50.054;8.790;2024-02-21T11:23:55;10.75;;;4.07;;
38603;SDS011;24924;50.054;8.790;2024-02-21T11:26:43;11.52;;;5.65;;
38603;SDS011;24924;50.054;8.790;2024-02-21T11:29:30;14.43;;;4.60;;
38603;SDS011;24924;50.054;8.790;2024-02-21T11:32:16;10.90;;;5.05;;
38603;SDS011;24924;50.054;8.790;2024-02-21T11:35:04;14.68;;;5.20;;
38603;SDS011;24924;50.054;8.790;2024-02-21T11:37:50;17.30;;;5.85;;
38603;SDS011;24924;50.054;8.790;2024-02-21T11:40:38;13.90;;;6.13;;
38603;SDS011;24924;50.054;8.790;2024-02-21T11:43:26;11.03;;;5.40;;
38603;SDS011;24924;50.054;8.790;2024-02-21T11:46:12;10.68;;;4.70;;
38603;SDS011;24924;50.054;8.790;2024-02-21T11:48:59;12.20;;;4.38;;
38603;SDS011;24924;50.054;8.790;2024-02-21T11:51:47;9.57;;;4.90;;
38603;SDS011;24924;50.054;8.790;2024-02-21T11:54:34;9.55;;;5.60;;
38603;SDS011;24924;50.054;8.790;2024-02-21T11:57:20;10.33;;;5.50;;
38603;SDS011;24924;50.054;8.790;2024-02-21T12:00:11;12.13;;;5.10;;
38603;SDS011;24924;50.054;8.790;2024-02-21T12:03:01;13.05;;;5.78;;
38603;SDS011;24924;50.054;8.790;2024-02-21T12:05:47;12.40;;;5.47;;
38603;SDS011;24924;50.054;8.790;2024-02-21T12:08:40;10.48;;;5.15;;
38603;SDS011;24924;50.054;8.790;2024-02-21T12:11:28;13.07;;;5.30;;
38603;SDS011;24924;50.054;8.790;2024-02-21T12:14:16;11.57;;;4.97;;
38603;SDS011;24924;50.054;8.790;2024-02-21T12:17:03;12.15;;;4.43;;
38603;SDS011;24924;50.054;8.790;2024-02-21T12:19:52;14.02;;;4.70;;
38603;SDS011;24924;50.054;8.790;2024-02-21T12:22:38;11.02;;;4.95;;
38603;SDS011;24924;50.054;8.790;2024-02-21T12:25:24;11.10;;;4.70;;
38603;SDS011;24924;50.054;8.790;2024-02-21T12:28:14;10.77;;;4.88;;
38603;SDS011;24924;50.054;8.790;2024-02-21T12:31:02;14.30;;;4.75;;
38603;SDS011;24924;50.054;8.790;2024-02-21T12:33:49;11.40;;;4.28;;
38603;SDS011;24924;50.054;8.790;2024-02-21T12:36:41;13.77;;;4.60;;
38603;SDS011;24924;50.054;8.790;2024-02-21T12:39:28;13.50;;;4.57;;
38603;SDS011;24924;50.054;8.790;2024-02-21T12:42:15;12.60;;;5.03;;
38603;SDS011;24924;50.054;8.790;2024-02-21T12:45:01;11.38;;;3.92;;
38603;SDS011;24924;50.054;8.790;2024-02-21T12:47:48;13.05;;;4.22;;
38603;SDS011;24924;50.054;8.790;2024-02-21T12:50:35;11.88;;;4.10;;
38603;SDS011;24924;50.054;8.790;2024-02-21T12:53:21;12.57;;;4.37;;
38603;SDS011;24924;50.054;8.790;2024-02-21T12:56:08;11.15;;;4.30;;
38603;SDS011;24924;50.054;8.790;2024-02-21T12:58:54;11.95;;;3.97;;
38603;SDS011;24924;50.054;8.790;2024-02-21T13:01:41;10.90;;;4.05;;
38603;SDS011;24924;50.054;8.790;2024-02-21T13:04:27;9.73;;;3.75;;
38603;SDS011;24924;50.054;8.790;2024-02-21T13:07:13;9.60;;;3.67;;
38603;SDS011;24924;50.054;8.790;2024-02-21T13:09:59;13.60;;;3.88;;
38603;SDS011;24924;50.054;8.790;2024-02-21T13:12:45;7.22;;;3.20;;
38603;SDS011;24924;50.054;8.790;2024-02-21T13:15:31;8.57;;;3.20;;
38603;SDS011;24924;50.054;8.790;2024-02-21T13:18:17;8.60;;;3.67;;
38603;SDS011;24924;50.054;8.790;2024-02-21T13:21:04;10.67;;;3.83;;
38603;SDS011;24924;50.054;8.790;2024-02-21T13:23:50;9.07;;;3.67;;
38603;SDS011;24924;50.054;8.790;2024-02-21T13:26:37;9.23;;;3.88;;
38603;SDS011;24924;50.054;8.790;2024-02-21T13:29:23;9.50;;;4.07;;
38603;SDS011;24924;50.054;8.790;2024-02-21T13:32:09;12.32;;;3.90;;
38603;SDS011;24924;50.054;8.790;2024-02-21T13:34:55;8.40;;;3.57;;
38603;SDS011;24924;50.054;8.790;2024-02-21T13:37:42;8.50;;;3.38;;
38603;SDS011;24924;50.054;8.790;2024-02-21T13:40:28;9.32;;;3.55;;
38603;SDS011;24924;50.054;8.790;2024-02-21T13:43:14;10.18;;;3.92;;
38603;SDS011;24924;50.054;8.790;2024-02-21T13:46:01;9.75;;;3.90;;
38603;SDS011;24924;50.054;8.790;2024-02-21T13:48:50;8.10;;;3.70;;
38603;SDS011;24924;50.054;8.790;2024-02-21T13:51:44;7.68;;;3.42;;
38603;SDS011;24924;50.054;8.790;2024-02-21T13:54:31;10.50;;;3.50;;
38603;SDS011;24924;50.054;8.790;2024-02-21T13:57:17;9.32;;;3.78;;
38603;SDS011;24924;50.054;8.790;2024-02-21T14:00:04;8.35;;;3.55;;
38603;SDS011;24924;50.054;8.790;2024-02-21T14:02:58;7.27;;;3.23;;
38603;SDS011;24924;50.054;8.790;2024-02-21T14:05:45;9.40;;;3.85;;
38603;SDS011;24924;50.054;8.790;2024-02-21T14:08:34;11.23;;;3.55;;
38603;SDS011;24924;50.054;8.790;2024-02-21T14:11:21;10.77;;;4.22;;
38603;SDS011;24924;50.054;8.790;2024-02-21T14:14:07;6.88;;;3.40;;
38603;SDS011;24924;50.054;8.790;2024-02-21T14:16:53;7.57;;;3.23;;
38603;SDS011;24924;50.054;8.790;2024-02-21T14:19:41;9.30;;;3.40;;
38603;SDS011;24924;50.054;8.790;2024-02-21T14:22:28;11.80;;;3.30;;
38603;SDS011;24924;50.054;8.790;2024-02-21T14:25:14;10.63;;;3.72;;
38603;SDS011;24924;50.054;8.790;2024-02-21T14:28:01;8.20;;;3.30;;
38603;SDS011;24924;50.054;8.790;2024-02-21T14:30:47;10.13;;;3.40;;
38603;SDS011;24924;50.054;8.790;2024-02-21T14:33:35;10.00;;;3.42;;
38603;SDS011;24924;50.054;8.790;2024-02-21T14:36:21;7.38;;;3.17;;
38603;SDS011;24924;50.054;8.790;2024-02-21T14:39:09;12.07;;;3.60;;
38603;SDS011;24924;50.054;8.790;2024-02-21T14:41:56;8.10;;;3.40;;
38603;SDS011;24924;50.054;8.790;2024-02-21T14:44:42;9.87;;;3.90;;
38603;SDS011;24924;50.054;8.790;2024-02-21T14:47:28;12.70;;;3.75;;
38603;SDS011;24924;50.054;8.790;2024-02-21T14:50:17;9.32;;;3.38;;
38603;SDS011;24924;50.054;8.790;2024-02-21T14:53:04;7.13;;;3.60;;
38603;SDS011;24924;50.054;8.790;2024-02-21T14:55:50;9.05;;;3.55;;
38603;SDS011;24924;50.054;8.790;2024-02-21T14:58:36;9.10;;;3.50;;
38603;SDS011;24924;50.054;8.790;2024-02-21T15:01:22;7.95;;;3.42;;
38603;SDS011;24924;50.054;8.790;2024-02-21T15:04:08;10.43;;;3.72;;
38603;SDS011;24924;50.054;8.790;2024-02-21T15:06:54;9.88;;;3.15;;
38603;SDS011;24924;50.054;8.790;2024-02-21T15:09:40;7.85;;;3.38;;
38603;SDS011;24924;50.054;8.790;2024-02-21T15:12:26;11.07;;;3.60;;
38603;SDS011;24924;50.054;8.790;2024-02-21T15:15:13;11.27;;;3.47;;
38603;SDS011;24924;50.054;8.790;2024-02-21T15:17:59;9.05;;;3.28;;
38603;SDS011;24924;50.054;8.790;2024-02-21T15:20:45;6.78;;;3.30;;
38603;SDS011;24924;50.054;8.790;2024-02-21T15:23:32;8.02;;;3.42;;
38603;SDS011;24924;50.054;8.790;2024-02-21T15:26:18;9.30;;;3.73;;
38603;SDS011;24924;50.054;8.790;2024-02-21T15:29:05;7.15;;;3.15;;
38603;SDS011;24924;50.054;8.790;2024-02-21T15:31:51;9.18;;;3.40;;
38603;SDS011;24924;50.054;8.790;2024-02-21T15:34:37;8.90;;;3.75;;
38603;SDS011;24924;50.054;8.790;2024-02-21T15:37:23;8.70;;;3.50;;
38603;SDS011;24924;50.054;8.790;2024-02-21T15:40:10;8.70;;;3.97;;
38603;SDS011;24924;50.054;8.790;2024-02-21T15:42:57;8.77;;;3.60;;
38603;SDS011;24924;50.054;8.790;2024-02-21T15:45:43;10.38;;;3.55;;
38603;SDS011;24924;50.054;8.790;2024-02-21T15:48:29;8.10;;;3.40;;
38603;SDS011;24924;50.054;8.790;2024-02-21T15:51:16;9.15;;;3.50;;
38603;SDS011;24924;50.054;8.790;2024-02-21T15:54:02;7.83;;;3.37;;
38603;SDS011;24924;50.054;8.790;2024-02-21T15:56:48;7.05;;;3.72;;
38603;SDS011;24924;50.054;8.790;2024-02-21T15:59:35;9.48;;;3.53;;
38603;SDS011;24924;50.054;8.790;2024-02-21T16:02:21;9.75;;;3.30;;
38603;SDS011;24924;50.054;8.790;2024-02-21T16:05:10;8.68;;;3.28;;
38603;SDS011;24924;50.054;8.790;2024-02-21T16:07:57;10.03;;;3.50;;
38603;SDS011;24924;50.054;8.790;2024-02-21T16:10:43;8.93;;;3.38;;
38603;SDS011;24924;50.054;8.790;2024-02-21T16:13:29;9.02;;;3.30;;
38603;SDS011;24924;50.054;8.790;2024-02-21T16:16:16;8.57;;;3.22;;
38603;SDS011;24924;50.054;8.790;2024-02-21T16:19:02;10.73;;;3.65;;
38603;SDS011;24924;50.054;8.790;2024-02-21T16:21:50;10.63;;;4.00;;
38603;SDS011;24924;50.054;8.790;2024-02-21T16:24:37;8.68;;;3.42;;
38603;SDS011;24924;50.054;8.790;2024-02-21T16:27:23;7.78;;;3.35;;
38603;SDS011;24924;50.054;8.790;2024-02-21T16:30:10;9.30;;;3.42;;
38603;SDS011;24924;50.054;8.790;2024-02-21T16:32:56;7.88;;;3.53;;